createdAt,value
2024-04-23T00:02:08.556Z,3.44
2024-04-23T00:04:36.228Z,3.63
2024-04-23T00:07:04.363Z,3.56
2024-04-23T00:09:32.029Z,3.44
2024-04-23T00:11:59.705Z,3.44
2024-04-23T00:14:29.382Z,3.38
2024-04-23T00:17:06.888Z,3.25
2024-04-23T00:19:37.265Z,3.38
2024-04-23T00:22:04.967Z,3.44
2024-04-23T00:24:32.602Z,3.50
2024-04-23T00:27:02.610Z,3.31
2024-04-23T00:29:31.387Z,3.25
2024-04-23T00:31:59.279Z,3.13
2024-04-23T00:34:27.120Z,3.19
2024-04-23T00:37:00.052Z,3.13
2024-04-23T00:39:28.646Z,3.25
2024-04-23T00:41:56.308Z,3.25
2024-04-23T00:44:23.952Z,3.31
2024-04-23T00:46:53.740Z,3.19
2024-04-23T00:49:21.733Z,3.25
2024-04-23T00:51:54.585Z,3.19
2024-04-23T00:54:27.381Z,3.06
2024-04-23T00:56:58.977Z,3.06
2024-04-23T00:59:27.793Z,3.06
2024-04-23T01:01:56.988Z,3.06
2024-04-23T01:04:25.005Z,3.06
2024-04-23T01:06:53.356Z,2.88
2024-04-23T01:09:22.637Z,2.94
2024-04-23T01:11:52.257Z,2.88
2024-04-23T01:14:20.530Z,2.75
2024-04-23T01:16:52.129Z,2.88
2024-04-23T01:19:40.873Z,2.88
2024-04-23T01:22:21.895Z,2.69
2024-04-23T01:25:17.647Z,2.75
2024-04-23T01:27:46.644Z,3.00
2024-04-23T01:30:14.282Z,2.75
2024-04-23T01:32:48.513Z,2.63
2024-04-23T01:35:20.699Z,2.56
2024-04-23T01:37:52.495Z,2.44
2024-04-23T01:40:21.864Z,2.38
2024-04-23T01:42:52.159Z,2.44
2024-04-23T01:45:21.822Z,2.38
2024-04-23T01:47:50.015Z,2.38
2024-04-23T01:50:17.726Z,2.56
2024-04-23T01:52:45.445Z,2.63
2024-04-23T01:55:15.975Z,2.63
2024-04-23T01:57:43.866Z,2.69
2024-04-23T02:00:18.111Z,2.56
2024-04-23T02:02:49.465Z,2.50
2024-04-23T02:05:20.052Z,2.31
2024-04-23T02:07:48.501Z,2.19
2024-04-23T02:10:16.300Z,2.06
2024-04-23T02:12:44.350Z,2.31
2024-04-23T02:15:11.979Z,2.31
2024-04-23T02:17:39.901Z,2.13
2024-04-23T02:20:11.754Z,2.19
2024-04-23T02:22:39.432Z,2.25
2024-04-23T02:25:07.084Z,2.25
2024-04-23T02:27:34.691Z,2.31
2024-04-23T02:30:02.705Z,2.31
2024-04-23T02:32:30.496Z,2.31
2024-04-23T02:34:58.241Z,2.25
2024-04-23T02:37:25.920Z,2.19
2024-04-23T02:39:53.565Z,2.19
2024-04-23T02:42:21.219Z,2.13
2024-04-23T02:44:48.946Z,2.06
2024-04-23T02:47:16.617Z,2.25
2024-04-23T02:49:44.350Z,2.25
2024-04-23T02:52:12.026Z,2.19
2024-04-23T02:54:39.651Z,2.19
2024-04-23T02:57:07.348Z,1.94
2024-04-23T02:59:34.995Z,1.94
2024-04-23T03:02:05.083Z,1.94
2024-04-23T03:04:33.654Z,1.94
2024-04-23T03:07:01.502Z,1.50
2024-04-23T03:09:29.236Z,1.44
2024-04-23T03:11:57.193Z,1.56
2024-04-23T03:14:24.882Z,1.63
2024-04-23T03:16:53.253Z,1.13
2024-04-23T03:19:21.072Z,1.25
2024-04-23T03:21:57.311Z,1.44
2024-04-23T03:24:26.672Z,1.44
2024-04-23T03:26:54.494Z,1.44
2024-04-23T03:29:22.336Z,1.31
2024-04-23T03:32:05.443Z,1.25
2024-04-23T03:34:34.123Z,1.50
2024-04-23T03:37:02.333Z,1.56
2024-04-23T03:39:30.079Z,1.69
2024-04-23T03:42:02.206Z,1.69
2024-04-23T03:44:30.763Z,1.31
2024-04-23T03:46:58.592Z,1.25
2024-04-23T03:49:26.663Z,1.38
2024-04-23T03:51:54.664Z,1.50
2024-04-23T03:54:22.312Z,1.63
2024-04-23T03:56:49.961Z,1.63
2024-04-23T03:59:17.580Z,1.69
2024-04-23T04:01:45.349Z,1.63
2024-04-23T04:04:31.478Z,1.56
2024-04-23T04:06:59.088Z,1.50
2024-04-23T04:09:26.770Z,1.56
2024-04-23T04:11:59.130Z,1.56
2024-04-23T04:14:26.748Z,1.56
2024-04-23T04:16:54.534Z,1.13
2024-04-23T04:19:22.176Z,1.00
2024-04-23T04:21:51.677Z,1.13
2024-04-23T04:24:19.274Z,1.19
2024-04-23T04:26:46.902Z,1.13
2024-04-23T04:29:14.535Z,1.06
2024-04-23T04:31:42.359Z,1.25
2024-04-23T04:34:10.029Z,1.31
2024-04-23T04:36:37.657Z,0.75
2024-04-23T04:39:05.275Z,0.81
2024-04-23T04:41:33.239Z,0.94
2024-04-23T04:44:01.135Z,1.13
2024-04-23T04:46:29.059Z,0.75
2024-04-23T04:48:56.787Z,0.69
2024-04-23T04:51:24.398Z,0.69
2024-04-23T04:53:52.029Z,0.81
2024-04-23T04:56:19.658Z,1.13
2024-04-23T04:58:47.427Z,1.31
2024-04-23T05:01:15.108Z,1.31
2024-04-23T05:03:42.724Z,1.13
2024-04-23T05:06:10.382Z,0.81
2024-04-23T05:08:38.073Z,0.88
2024-04-23T05:11:06.060Z,0.81
2024-04-23T05:13:33.733Z,1.00
2024-04-23T05:16:01.372Z,1.31
2024-04-23T05:18:29.079Z,1.50
2024-04-23T05:20:56.817Z,1.69
2024-04-23T05:23:24.466Z,1.88
2024-04-23T05:25:52.131Z,2.13
2024-04-23T05:28:19.739Z,2.25
2024-04-23T05:31:06.013Z,2.44
2024-04-23T05:33:33.753Z,2.50
2024-04-23T05:36:01.562Z,2.63
2024-04-23T05:38:29.953Z,2.81
2024-04-23T05:40:57.923Z,2.94
2024-04-23T05:43:25.568Z,3.06
2024-04-23T05:45:53.278Z,3.19
2024-04-23T05:49:17.758Z,3.25
2024-04-23T05:52:42.224Z,3.56
2024-04-23T05:55:32.252Z,3.56
2024-04-23T05:58:00.556Z,3.81
2024-04-23T06:00:28.451Z,4.00
2024-04-23T06:02:56.150Z,4.00
2024-04-23T06:05:24.806Z,4.13
2024-04-23T06:07:55.161Z,4.06
2024-04-23T06:10:23.748Z,4.19
2024-04-23T06:12:52.383Z,4.31
2024-04-23T06:15:20.125Z,4.56
2024-04-23T06:17:48.732Z,4.75
2024-04-23T06:20:17.235Z,4.88
2024-04-23T06:22:49.952Z,4.88
2024-04-23T06:25:18.125Z,5.00
2024-04-23T06:27:45.877Z,5.13
2024-04-23T06:30:16.499Z,5.19
2024-04-23T06:32:45.254Z,5.00
2024-04-23T06:35:15.204Z,5.00
2024-04-23T06:37:43.181Z,5.25
2024-04-23T06:40:11.983Z,5.38
2024-04-23T06:42:41.020Z,5.44
2024-04-23T06:45:08.987Z,5.56
2024-04-23T06:47:36.711Z,5.63
2024-04-23T06:50:06.124Z,5.63
2024-04-23T06:52:34.083Z,5.69
2024-04-23T06:55:03.458Z,5.94
2024-04-23T06:57:31.519Z,6.13
2024-04-23T06:59:59.137Z,6.19
2024-04-23T07:02:26.953Z,6.44
2024-04-23T07:04:54.941Z,6.25
2024-04-23T07:07:22.676Z,6.38
2024-04-23T07:09:50.354Z,6.50
2024-04-23T07:12:18.018Z,6.56
2024-04-23T07:14:45.700Z,6.63
2024-04-23T07:17:13.459Z,6.88
2024-04-23T07:19:41.248Z,6.94
2024-04-23T07:22:08.908Z,7.25
2024-04-23T07:24:36.629Z,7.25
2024-04-23T07:27:04.586Z,7.00
2024-04-23T07:29:32.226Z,7.31
2024-04-23T07:31:59.966Z,7.44
2024-04-23T07:34:27.673Z,7.63
2024-04-23T07:36:55.476Z,7.56
2024-04-23T07:39:23.102Z,7.75
2024-04-23T07:41:50.711Z,7.88
2024-04-23T07:44:18.338Z,8.00
2024-04-23T07:46:48.541Z,8.06
2024-04-23T07:49:16.227Z,8.06
2024-04-23T07:51:43.857Z,8.13
2024-04-23T07:54:11.461Z,7.88
2024-04-23T07:56:39.093Z,7.94
2024-04-23T07:59:06.780Z,7.94
2024-04-23T08:01:34.534Z,8.31
2024-04-23T08:04:02.891Z,8.50
2024-04-23T08:06:30.689Z,8.69
2024-04-23T08:08:58.519Z,8.31
2024-04-23T08:11:26.553Z,8.13
2024-04-23T08:13:54.300Z,8.56
2024-04-23T08:16:21.955Z,8.50
2024-04-23T08:18:50.030Z,8.44
2024-04-23T08:21:17.755Z,8.25
2024-04-23T08:23:45.377Z,8.81
2024-04-23T08:26:16.761Z,9.06
2024-04-23T08:28:45.679Z,9.06
2024-04-23T08:31:13.733Z,9.50
2024-04-23T08:33:41.517Z,9.69
2024-04-23T08:36:09.348Z,8.81
2024-04-23T08:38:37.096Z,9.13
2024-04-23T08:41:06.655Z,8.94
2024-04-23T08:44:04.456Z,8.25
2024-04-23T08:46:32.453Z,7.88
2024-04-23T08:49:04.647Z,7.94
2024-04-23T08:51:34.650Z,7.75
2024-04-23T08:54:03.702Z,8.31
2024-04-23T08:56:34.104Z,8.13
2024-04-23T08:59:09.757Z,8.56
2024-04-23T09:01:43.115Z,8.56
2024-04-23T09:04:12.068Z,8.50
2024-04-23T09:06:42.071Z,9.19
2024-04-23T09:09:11.497Z,9.13
2024-04-23T09:11:39.612Z,9.44
2024-04-23T09:14:08.124Z,9.44
2024-04-23T09:16:35.922Z,9.44
2024-04-23T09:19:03.654Z,9.50
2024-04-23T09:21:31.363Z,9.50
2024-04-23T09:24:05.720Z,9.56
2024-04-23T09:26:33.630Z,8.94
2024-04-23T09:29:01.705Z,8.81
2024-04-23T09:31:29.389Z,9.13
2024-04-23T09:34:00.691Z,9.13
2024-04-23T09:36:30.198Z,8.75
2024-04-23T09:39:00.329Z,9.31
2024-04-23T09:41:28.211Z,9.69
2024-04-23T09:44:03.593Z,8.88
2024-04-23T09:46:32.973Z,9.00
2024-04-23T09:49:05.647Z,9.75
2024-04-23T09:51:34.092Z,9.25
2024-04-23T09:54:02.924Z,9.94
2024-04-23T09:56:30.615Z,10.75
2024-04-23T09:58:59.107Z,10.56
2024-04-23T10:01:28.501Z,10.00
2024-04-23T10:04:01.934Z,9.44
2024-04-23T10:06:36.451Z,9.13
2024-04-23T10:09:28.515Z,8.94
2024-04-23T10:12:17.150Z,8.75
2024-04-23T10:15:05.231Z,8.81
2024-04-23T10:18:09.714Z,9.38
2024-04-23T10:20:48.719Z,9.75
2024-04-23T10:23:19.926Z,9.63
2024-04-23T10:25:48.324Z,9.31
2024-04-23T10:28:17.627Z,9.88
2024-04-23T10:30:46.622Z,10.13
2024-04-23T10:33:18.802Z,10.25
2024-04-23T10:35:49.402Z,10.50
2024-04-23T10:38:20.828Z,10.88
2024-04-23T10:40:56.628Z,11.69
2024-04-23T10:43:29.532Z,11.00
2024-04-23T10:45:57.586Z,10.88
2024-04-23T10:48:29.236Z,9.75
2024-04-23T10:51:02.711Z,9.88
2024-04-23T10:53:36.424Z,9.88
2024-04-23T10:56:04.553Z,9.63
2024-04-23T10:58:39.254Z,9.44
2024-04-23T11:01:07.144Z,10.00
2024-04-23T11:03:37.315Z,10.69
2024-04-23T11:06:07.336Z,10.38
2024-04-23T11:08:37.663Z,10.19
2024-04-23T11:11:06.703Z,10.50
2024-04-23T11:13:40.741Z,11.00
2024-04-23T11:16:17.914Z,11.06
2024-04-23T11:18:50.829Z,10.56
2024-04-23T11:21:28.215Z,10.06
2024-04-23T11:23:58.046Z,10.25
2024-04-23T11:26:26.720Z,10.19
2024-04-23T11:28:57.962Z,10.00
2024-04-23T11:31:26.661Z,10.19
2024-04-23T11:33:54.253Z,10.19
2024-04-23T11:36:29.404Z,10.94
2024-04-23T11:39:07.460Z,10.88
2024-04-23T11:41:35.281Z,10.69
2024-04-23T11:44:05.017Z,10.94
2024-04-23T11:46:32.755Z,10.56
2024-04-23T11:49:00.580Z,10.19
2024-04-23T11:51:28.787Z,10.00
2024-04-23T11:53:57.440Z,10.13
2024-04-23T11:56:25.132Z,10.88
2024-04-23T11:58:53.637Z,10.94
2024-04-23T12:01:21.264Z,10.81
2024-04-23T12:03:51.251Z,11.19
2024-04-23T12:06:20.797Z,10.44
2024-04-23T12:08:49.066Z,10.56
2024-04-23T12:11:18.579Z,10.75
2024-04-23T12:13:50.221Z,11.00
2024-04-23T12:16:18.100Z,11.00
2024-04-23T12:18:45.856Z,10.94
2024-04-23T12:21:13.701Z,11.19
2024-04-23T12:23:41.869Z,11.38
2024-04-23T12:26:14.130Z,11.13
2024-04-23T12:28:42.913Z,11.31
2024-04-23T12:31:11.654Z,11.00
2024-04-23T12:33:39.328Z,11.25
2024-04-23T12:36:12.640Z,11.13
2024-04-23T12:38:44.956Z,10.88
2024-04-23T12:41:22.025Z,10.81
2024-04-23T12:43:51.723Z,10.88
2024-04-23T12:46:21.010Z,11.06
2024-04-23T12:48:48.972Z,11.44
2024-04-23T12:51:16.869Z,11.19
2024-04-23T12:53:44.607Z,11.50
2024-04-23T12:56:12.960Z,11.38
2024-04-23T12:58:40.724Z,11.56
2024-04-23T13:01:09.228Z,11.38
2024-04-23T13:03:37.019Z,10.88
2024-04-23T13:06:05.202Z,11.31
2024-04-23T13:08:35.604Z,11.69
2024-04-23T13:11:03.374Z,11.75
2024-04-23T13:13:31.123Z,11.56
2024-04-23T13:15:58.880Z,11.00
2024-04-23T13:18:26.662Z,11.50
2024-04-23T13:20:54.483Z,11.50
2024-04-23T13:23:22.219Z,10.94
2024-04-23T13:25:49.923Z,11.25
2024-04-23T13:28:17.563Z,11.19
2024-04-23T13:30:47.618Z,10.94
2024-04-23T13:33:15.403Z,11.69
2024-04-23T13:35:43.119Z,11.31
2024-04-23T13:38:10.773Z,11.25
2024-04-23T13:40:38.458Z,11.13
2024-04-23T13:43:08.365Z,11.56
2024-04-23T13:45:36.673Z,11.56
2024-04-23T13:48:04.702Z,10.88
2024-04-23T13:50:32.357Z,11.19
2024-04-23T13:53:00.065Z,11.69
2024-04-23T13:55:27.698Z,12.06
2024-04-23T13:57:55.304Z,11.94
2024-04-23T14:00:22.961Z,11.00
2024-04-23T14:02:50.860Z,11.25
2024-04-23T14:05:21.073Z,11.94
2024-04-23T14:07:51.716Z,12.25
2024-04-23T14:10:19.339Z,12.13
2024-04-23T14:12:47.298Z,12.06
2024-04-23T14:15:17.521Z,11.88
2024-04-23T14:17:46.488Z,12.13
2024-04-23T14:20:14.348Z,12.25
2024-04-23T14:22:42.185Z,11.88
2024-04-23T14:25:12.682Z,11.50
2024-04-23T14:27:40.930Z,11.69
2024-04-23T14:30:11.659Z,12.31
2024-04-23T14:32:40.170Z,12.31
2024-04-23T14:35:09.527Z,12.19
2024-04-23T14:37:39.063Z,10.88
2024-04-23T14:40:08.520Z,11.00
2024-04-23T14:42:36.796Z,11.25
2024-04-23T14:45:04.874Z,11.63
2024-04-23T14:47:34.487Z,11.81
2024-04-23T14:50:08.093Z,11.50
2024-04-23T14:52:36.038Z,11.38
2024-04-23T14:55:03.884Z,10.88
2024-04-23T14:57:31.505Z,11.06
2024-04-23T14:59:59.194Z,10.75
2024-04-23T15:02:26.871Z,10.63
2024-04-23T15:04:54.587Z,10.69
2024-04-23T15:07:23.974Z,10.63
2024-04-23T15:09:51.600Z,10.50
2024-04-23T15:12:20.491Z,10.44
2024-04-23T15:14:49.794Z,10.19
2024-04-23T15:17:17.612Z,10.25
2024-04-23T15:19:47.853Z,10.31
2024-04-23T15:22:15.515Z,10.06
2024-04-23T15:24:43.125Z,10.13
2024-04-23T15:27:10.896Z,9.94
2024-04-23T15:29:39.256Z,9.94
2024-04-23T15:32:07.403Z,9.75
2024-04-23T15:34:35.064Z,9.50
2024-04-23T15:37:02.683Z,9.44
2024-04-23T15:39:30.330Z,9.38
2024-04-23T15:41:59.346Z,9.38
2024-04-23T15:44:27.075Z,9.38
2024-04-23T15:46:54.738Z,9.25
2024-04-23T15:49:23.151Z,9.50
2024-04-23T15:51:50.810Z,9.50
2024-04-23T15:54:18.441Z,9.38
2024-04-23T15:56:46.118Z,9.13
2024-04-23T15:59:13.797Z,8.81
2024-04-23T16:01:41.514Z,8.69
2024-04-23T16:04:09.354Z,8.69
2024-04-23T16:06:37.007Z,8.75
2024-04-23T16:09:04.758Z,8.69
2024-04-23T16:11:32.541Z,8.56
2024-04-23T16:14:02.782Z,8.31
2024-04-23T16:16:30.517Z,8.13
2024-04-23T16:18:58.553Z,8.13
2024-04-23T16:21:26.291Z,8.00
2024-04-23T16:23:54.050Z,8.19
2024-04-23T16:26:21.863Z,7.88
2024-04-23T16:28:50.073Z,7.69
2024-04-23T16:31:17.783Z,7.56
2024-04-23T16:33:45.483Z,7.56
2024-04-23T16:36:13.262Z,7.63
2024-04-23T16:38:42.033Z,7.31
2024-04-23T16:41:10.129Z,7.19
2024-04-23T16:43:38.131Z,7.19
2024-04-23T16:46:12.479Z,7.38
2024-04-23T16:48:40.451Z,7.31
2024-04-23T16:51:13.195Z,7.13
2024-04-23T16:53:40.930Z,7.13
2024-04-23T16:56:11.558Z,7.19
2024-04-23T16:58:39.335Z,7.31
2024-04-23T17:01:10.834Z,7.31
2024-04-23T17:03:39.546Z,7.19
2024-04-23T17:06:07.540Z,7.19
2024-04-23T17:08:35.227Z,7.31
2024-04-23T17:11:05.070Z,7.44
2024-04-23T17:13:35.898Z,7.38
2024-04-23T17:16:13.630Z,7.56
2024-04-23T17:18:41.704Z,7.63
2024-04-23T17:21:18.251Z,7.25
2024-04-23T17:23:47.768Z,7.25
2024-04-23T17:26:16.011Z,7.31
2024-04-23T17:28:44.472Z,7.38
2024-04-23T17:31:15.861Z,7.44
2024-04-23T17:33:44.108Z,7.38
2024-04-23T17:36:11.903Z,7.38
2024-04-23T17:38:41.066Z,7.44
2024-04-23T17:41:10.921Z,7.50
2024-04-23T17:43:40.998Z,7.50
2024-04-23T17:46:10.471Z,7.44
2024-04-23T17:48:38.519Z,7.44
2024-04-23T17:51:07.464Z,7.44
2024-04-23T17:53:35.357Z,7.50
2024-04-23T17:56:07.843Z,7.50
2024-04-23T17:58:38.896Z,7.44
2024-04-23T18:01:11.058Z,7.56
2024-04-23T18:03:41.604Z,7.50
2024-04-23T18:06:14.416Z,7.63
2024-04-23T18:08:42.116Z,7.63
2024-04-23T18:11:10.784Z,7.44
2024-04-23T18:13:41.396Z,7.38
2024-04-23T18:16:10.532Z,7.44
2024-04-23T18:18:38.501Z,7.31
2024-04-23T18:21:08.277Z,7.38
2024-04-23T18:23:38.316Z,7.31
2024-04-23T18:26:11.188Z,7.56
2024-04-23T18:28:39.587Z,7.25
2024-04-23T18:31:08.065Z,7.19
2024-04-23T18:33:35.963Z,7.50
2024-04-23T18:36:04.696Z,7.31
2024-04-23T18:38:33.455Z,7.19
2024-04-23T18:41:13.484Z,7.13
2024-04-23T18:43:41.451Z,7.31
2024-04-23T18:46:16.860Z,7.25
2024-04-23T18:48:47.945Z,7.50
2024-04-23T18:51:16.234Z,7.50
2024-04-23T18:53:44.568Z,7.56
2024-04-23T18:56:14.635Z,7.56
2024-04-23T18:58:45.207Z,7.69
2024-04-23T19:01:16.899Z,7.56
2024-04-23T19:03:45.011Z,7.56
2024-04-23T19:06:21.587Z,7.50
2024-04-23T19:08:50.743Z,7.50
2024-04-23T19:11:26.728Z,7.44
2024-04-23T19:14:04.213Z,7.44
2024-04-23T19:16:42.829Z,7.31
2024-04-23T19:19:11.110Z,7.25
2024-04-23T19:21:38.915Z,7.31
2024-04-23T19:24:07.102Z,7.25
2024-04-23T19:26:34.707Z,7.25
2024-04-23T19:29:02.378Z,7.31
2024-04-23T19:31:30.168Z,7.31
2024-04-23T19:33:57.934Z,7.31
2024-04-23T19:36:28.106Z,7.19
2024-04-23T19:38:55.822Z,7.25
2024-04-23T19:41:23.514Z,7.25
2024-04-23T19:43:53.592Z,7.19
2024-04-23T19:46:26.907Z,7.19
2024-04-23T19:48:57.447Z,7.19
2024-04-23T19:51:25.447Z,7.31
2024-04-23T19:53:53.081Z,7.38
2024-04-23T19:56:34.850Z,7.31
2024-04-23T19:59:07.740Z,7.31
2024-04-23T20:01:40.799Z,7.25
2024-04-23T20:04:09.639Z,7.13
2024-04-23T20:06:37.746Z,7.06
2024-04-23T20:09:05.604Z,7.13
2024-04-23T20:11:33.755Z,6.94
2024-04-23T20:14:01.422Z,6.81
2024-04-23T20:16:29.128Z,6.88
2024-04-23T20:18:56.785Z,6.94
2024-04-23T20:21:25.071Z,6.94
2024-04-23T20:23:54.899Z,6.81
2024-04-23T20:26:25.730Z,6.88
2024-04-23T20:28:54.283Z,6.94
2024-04-23T20:31:23.018Z,6.69
2024-04-23T20:33:50.969Z,6.56
2024-04-23T20:36:18.716Z,6.56
2024-04-23T20:38:46.364Z,6.50
2024-04-23T20:41:14.523Z,6.44
2024-04-23T20:43:42.822Z,6.31
2024-04-23T20:46:10.919Z,6.44
2024-04-23T20:48:38.745Z,6.31
2024-04-23T20:51:06.607Z,6.19
2024-04-23T20:53:34.288Z,6.25
2024-04-23T20:56:06.851Z,6.19
2024-04-23T20:58:35.533Z,6.25
2024-04-23T21:01:11.014Z,6.06
2024-04-23T21:03:40.126Z,5.88
2024-04-23T21:06:13.186Z,5.94
2024-04-23T21:08:42.484Z,6.00
2024-04-23T21:11:15.522Z,5.88
2024-04-23T21:13:44.985Z,5.88
2024-04-23T21:16:15.067Z,5.88
2024-04-23T21:18:44.809Z,5.88
2024-04-23T21:21:14.101Z,5.94
2024-04-23T21:23:42.787Z,5.81
2024-04-23T21:26:10.697Z,5.88
2024-04-23T21:28:38.566Z,6.00
2024-04-23T21:31:06.243Z,6.00
2024-04-23T21:33:34.455Z,6.00
2024-04-23T21:36:07.898Z,5.94
2024-04-23T21:38:37.710Z,6.06
2024-04-23T21:41:11.131Z,6.13
2024-04-23T21:43:40.630Z,6.13
2024-04-23T21:46:11.003Z,6.00
2024-04-23T21:48:38.849Z,6.06
2024-04-23T21:51:15.545Z,6.06
2024-04-23T21:53:43.934Z,5.88
2024-04-23T21:56:11.724Z,5.81
2024-04-23T21:58:39.821Z,5.81
2024-04-23T22:01:16.952Z,5.69
2024-04-23T22:03:46.994Z,5.63
2024-04-23T22:06:15.355Z,5.63
2024-04-23T22:08:49.203Z,5.56
2024-04-23T22:11:17.436Z,5.69
2024-04-23T22:13:45.111Z,5.63
2024-04-23T22:16:12.841Z,5.44
2024-04-23T22:18:40.535Z,5.44
2024-04-23T22:21:08.232Z,5.38
2024-04-23T22:23:35.881Z,5.25
2024-04-23T22:26:04.055Z,5.44
2024-04-23T22:28:31.838Z,5.38
2024-04-23T22:31:01.624Z,5.38
2024-04-23T22:33:29.399Z,5.31
2024-04-23T22:35:57.155Z,5.38
2024-04-23T22:38:24.822Z,5.31
2024-04-23T22:40:52.778Z,5.19
2024-04-23T22:43:20.466Z,5.13
2024-04-23T22:45:47.602Z,5.13
2024-04-23T22:48:15.394Z,5.13
2024-04-23T22:50:43.080Z,5.31
2024-04-23T22:53:13.582Z,5.31
2024-04-23T22:55:41.318Z,5.00
2024-04-23T22:58:08.999Z,5.00
2024-04-23T23:00:36.624Z,5.38
2024-04-23T23:03:04.769Z,5.00
2024-04-23T23:05:32.409Z,5.06
2024-04-23T23:08:00.011Z,5.13
2024-04-23T23:10:27.641Z,5.13
2024-04-23T23:12:55.289Z,5.13
2024-04-23T23:15:22.936Z,5.13
2024-04-23T23:17:50.902Z,5.06
2024-04-23T23:20:18.697Z,5.13
2024-04-23T23:22:49.469Z,5.06
2024-04-23T23:25:17.654Z,5.00
2024-04-23T23:27:45.254Z,5.00
2024-04-23T23:30:13.011Z,4.94
2024-04-23T23:32:40.721Z,5.00
2024-04-23T23:35:08.416Z,4.94
2024-04-23T23:37:36.037Z,4.88
2024-04-23T23:40:03.830Z,4.75
2024-04-23T23:42:31.584Z,4.75
2024-04-23T23:44:59.188Z,4.88
2024-04-23T23:47:26.830Z,4.88
2024-04-23T23:49:54.517Z,4.81
2024-04-23T23:52:22.279Z,4.88
2024-04-23T23:54:49.891Z,4.75
2024-04-23T23:57:17.543Z,4.81
2024-04-23T23:59:45.176Z,4.75
